Time;durP1;ratioP1;P1;durP2;ratioP2;P2;SDS_P1;SDS_P2;PMS_P1;PMS_P2;Temp;Humidity;BMP_temperature;BMP_pressure;BME280_temperature;BME280_humidity;BME280_pressure;Samples;Min_cycle;Max_cycle;Signal;HPM_P1;HPM_P2
2022/10/19 00:01:35;;;;;;;4.35;2.60;;;;;;;10.13;86.14;102976.78;5081785;28;20047;-74
2022/10/19 00:04:01;;;;;;;2.65;2.45;;;;;;;10.11;86.17;102975.91;5081946;28;20050;-74
2022/10/19 00:06:30;;;;;;;2.80;2.60;;;;;;;10.09;85.90;102972.44;5096881;28;20216;-74
2022/10/19 00:08:58;;;;;;;3.05;2.58;;;;;;;10.09;86.17;102974.19;5081718;28;20025;-74
2022/10/19 00:11:24;;;;;;;4.13;2.25;;;;;;;10.07;86.23;102981.19;5081227;28;20044;-74
2022/10/19 00:13:51;;;;;;;4.20;2.63;;;;;;;10.06;86.18;102974.19;5080653;28;20028;-74
2022/10/19 00:16:16;;;;;;;2.78;2.50;;;;;;;10.04;86.12;102971.59;5081561;28;20071;-74
2022/10/19 00:18:43;;;;;;;3.33;2.47;;;;;;;10.02;86.28;102973.31;5081109;28;20036;-74
2022/10/19 00:21:11;;;;;;;3.33;2.40;;;;;;;10.00;86.10;102967.22;5081901;28;20036;-74
2022/10/19 00:23:37;;;;;;;2.40;2.20;;;;;;;9.99;86.28;102965.50;5081162;28;20045;-74
2022/10/19 00:26:03;;;;;;;2.53;2.33;;;;;;;9.97;86.12;102960.28;5081611;28;20024;-74
2022/10/19 00:28:28;;;;;;;3.53;2.83;;;;;;;9.96;86.19;102961.13;5080998;28;20168;-74
2022/10/19 00:30:54;;;;;;;2.67;2.38;;;;;;;9.94;86.27;102952.44;5081139;28;20032;-74
2022/10/19 00:33:21;;;;;;;2.58;2.38;;;;;;;9.93;86.25;102955.94;5079053;28;20028;-74
2022/10/19 00:35:51;;;;;;;2.90;2.65;;;;;;;9.91;86.38;102962.91;5061362;28;20251;-74
2022/10/19 00:38:18;;;;;;;2.80;2.60;;;;;;;9.88;86.12;102968.16;5060929;28;20040;-74
2022/10/19 00:40:45;;;;;;;4.07;2.38;;;;;;;9.88;86.31;102972.53;5061016;28;20104;-74
2022/10/19 00:43:15;;;;;;;4.55;2.83;;;;;;;9.87;86.35;102968.16;5061133;28;20082;-74
2022/10/19 00:45:41;;;;;;;3.13;2.30;;;;;;;9.85;86.28;102964.69;5060971;28;20025;-74
2022/10/19 00:48:07;;;;;;;3.13;2.60;;;;;;;9.83;86.43;102963.81;5060960;28;20029;-74
2022/10/19 00:50:32;;;;;;;3.10;2.30;;;;;;;9.81;86.41;102963.84;5061148;28;20036;-74
2022/10/19 00:52:58;;;;;;;3.28;2.13;;;;;;;9.80;86.36;102962.97;5061804;28;20068;-74
2022/10/19 00:55:24;;;;;;;2.80;2.60;;;;;;;9.79;86.31;102971.69;5061229;28;20025;-74
2022/10/19 00:57:49;;;;;;;2.67;2.42;;;;;;;9.77;86.31;102962.09;5061685;28;20305;-74
2022/10/19 01:00:15;;;;;;;2.33;2.13;;;;;;;9.74;86.37;102965.59;5061208;28;20021;-74
2022/10/19 01:02:40;;;;;;;2.97;2.70;;;;;;;9.74;86.51;102967.34;5061522;28;20033;-74
2022/10/19 01:05:07;;;;;;;3.22;2.85;;;;;;;9.74;86.51;102965.59;5077344;28;20028;-74
2022/10/19 01:07:32;;;;;;;2.45;2.25;;;;;;;9.71;86.64;102962.09;5080152;28;20236;-74
2022/10/19 01:09:59;;;;;;;4.53;2.50;;;;;;;9.70;86.26;102952.53;5073124;28;20052;-74
2022/10/19 01:12:27;;;;;;;2.67;2.50;;;;;;;9.69;86.41;102958.63;5061089;28;20365;-74
2022/10/19 01:15:18;;;;;;;3.03;2.55;;;;;;;9.67;86.61;102960.38;5061762;28;20339;-74
2022/10/19 01:17:56;;;;;;;3.47;3.17;;;;;;;9.64;86.45;102958.66;5061230;28;20039;-74
2022/10/19 01:20:47;;;;;;;3.83;2.95;;;;;;;9.64;86.65;102950.81;5059638;28;20032;-74
2022/10/19 01:23:40;;;;;;;2.80;2.60;;;;;;;9.63;86.33;102966.50;5060437;28;20337;-74
2022/10/19 01:26:37;;;;;;;3.10;2.33;;;;;;;9.60;86.39;102955.19;5061274;28;20025;-74
2022/10/19 01:29:25;;;;;;;3.20;2.55;;;;;;;9.58;86.55;102942.97;5060930;28;20052;-74
2022/10/19 01:31:58;;;;;;;3.88;2.90;;;;;;;9.57;86.58;102938.63;5061068;28;20125;-74
2022/10/19 01:34:31;;;;;;;4.25;2.80;;;;;;;9.55;86.31;102941.25;5069793;28;20024;-74
2022/10/19 01:37:01;;;;;;;4.10;2.92;;;;;;;9.54;86.49;102943.84;5080968;28;20024;-74
2022/10/19 01:39:39;;;;;;;3.17;2.92;;;;;;;9.52;86.74;102936.00;5080695;28;20058;-74
2022/10/19 01:42:14;;;;;;;4.80;3.35;;;;;;;9.51;86.49;102942.09;5080637;28;20046;-74
2022/10/19 01:45:17;;;;;;;3.47;3.00;;;;;;;9.50;86.74;102944.75;5080310;28;20028;-74
2022/10/19 01:47:54;;;;;;;3.05;2.75;;;;;;;9.49;86.75;102940.38;5048163;28;20097;-74
2022/10/19 01:50:48;;;;;;;4.88;3.13;;;;;;;9.46;86.88;102941.28;5080424;28;20028;-74
2022/10/19 01:53:16;;;;;;;3.78;3.03;;;;;;;9.46;86.79;102935.13;5080564;28;20036;-74
2022/10/19 01:55:44;;;;;;;3.35;3.10;;;;;;;9.44;86.69;102935.19;5080774;28;20020;-74
2022/10/19 01:58:15;;;;;;;3.10;2.90;;;;;;;9.43;86.71;102935.19;5081023;28;20036;-74
2022/10/19 02:00:44;;;;;;;4.57;3.22;;;;;;;9.40;86.76;102934.31;5080381;28;20330;-74
2022/10/19 02:03:10;;;;;;;;;;;;;;;9.39;86.78;102943.00;5079645;28;20073;-74
2022/10/19 02:05:38;;;;;;;3.65;3.15;;;;;;;9.38;86.93;102945.63;5079995;28;19920;-74
2022/10/19 02:08:12;;;;;;;3.42;3.13;;;;;;;9.36;86.65;102935.16;5080759;28;20246;-74
2022/10/19 02:10:40;;;;;;;3.28;3.08;;;;;;;9.35;86.76;102932.56;5079042;28;20028;-74
2022/10/19 02:13:07;;;;;;;3.22;2.92;;;;;;;9.33;86.63;102924.75;5096221;28;20024;-74
2022/10/19 02:15:37;;;;;;;3.47;3.00;;;;;;;9.32;86.86;102919.50;5079486;28;20066;-74
2022/10/19 02:18:05;;;;;;;3.47;3.28;;;;;;;9.31;86.93;102909.91;5080349;28;20027;-74
2022/10/19 02:20:33;;;;;;;2.90;2.70;;;;;;;9.30;87.22;102905.56;5078861;28;20824;-74
2022/10/19 02:22:58;;;;;;;3.75;2.88;;;;;;;9.29;87.11;102904.66;5079932;28;20049;-74
2022/10/19 02:25:24;;;;;;;3.47;3.17;;;;;;;9.29;87.32;102891.59;5079653;28;20036;-74
2022/10/19 02:27:50;;;;;;;2.97;2.78;;;;;;;9.29;87.45;102891.59;5080446;28;20223;-74
2022/10/19 02:30:18;;;;;;;3.83;3.47;;;;;;;9.29;87.63;102899.44;5078738;28;20028;-74
2022/10/19 02:32:44;;;;;;;3.55;3.17;;;;;;;9.30;87.30;102910.78;5080015;28;20036;-74
2022/10/19 02:35:12;;;;;;;4.60;4.00;;;;;;;9.29;87.79;102912.50;5080071;28;20031;-74
2022/10/19 02:37:37;;;;;;;6.93;3.22;;;;;;;9.28;87.71;102900.34;5079628;28;20103;-74
2022/10/19 02:40:04;;;;;;;3.65;3.35;;;;;;;9.27;87.90;102901.19;5078686;28;20277;-74
2022/10/19 02:42:38;;;;;;;4.13;3.72;;;;;;;9.26;87.79;102912.53;5079363;28;20358;-74
2022/10/19 02:45:17;;;;;;;3.67;3.33;;;;;;;9.26;87.86;102901.19;5079782;28;20096;-74
2022/10/19 02:48:07;;;;;;;3.60;3.40;;;;;;;9.23;87.68;102902.09;5079703;28;20024;-74
2022/10/19 02:50:33;;;;;;;4.22;3.80;;;;;;;9.23;87.71;102896.84;5079550;28;20252;-74
2022/10/19 02:52:59;;;;;;;4.85;4.22;;;;;;;9.21;88.16;102904.69;5079788;28;20059;-74
2022/10/19 02:55:24;;;;;;;3.90;3.60;;;;;;;9.21;87.75;102903.84;5079173;28;20060;-74
2022/10/19 02:57:50;;;;;;;3.55;3.35;;;;;;;9.18;87.89;102896.00;5079579;28;20043;-74
2022/10/19 03:00:15;;;;;;;3.75;3.47;;;;;;;9.17;87.90;102897.75;5080025;28;20294;-74
2022/10/19 03:02:41;;;;;;;3.53;3.33;;;;;;;9.15;87.96;102891.66;5079679;28;20032;-74
2022/10/19 03:05:07;;;;;;;3.63;3.33;;;;;;;9.14;87.71;102889.03;5062509;28;20236;-74
2022/10/19 03:07:33;;;;;;;3.30;3.10;;;;;;;9.13;87.77;102890.78;5058893;28;20096;-74
2022/10/19 03:09:58;;;;;;;3.90;3.60;;;;;;;9.10;87.62;102892.53;5059122;28;20075;-74
2022/10/19 03:12:24;;;;;;;3.50;3.20;;;;;;;9.10;87.94;102892.53;5059080;28;20028;-74
2022/10/19 03:14:49;;;;;;;3.10;2.90;;;;;;;9.08;87.76;102881.19;5058928;28;20328;-74
2022/10/19 03:17:14;;;;;;;3.40;3.20;;;;;;;9.08;87.82;102899.47;5059069;28;20032;-74
2022/10/19 03:19:40;;;;;;;6.00;3.80;;;;;;;9.06;87.83;102883.81;5059159;28;20092;-74
2022/10/19 03:22:05;;;;;;;3.55;3.25;;;;;;;9.05;87.92;102878.59;5074432;28;20296;-74
2022/10/19 03:24:30;;;;;;;3.00;2.80;;;;;;;9.03;88.00;102874.22;5058574;28;20136;-74
2022/10/19 03:26:56;;;;;;;3.20;3.00;;;;;;;9.02;87.73;102875.13;5057833;28;20352;-74
2022/10/19 03:29:22;;;;;;;3.35;3.15;;;;;;;9.02;87.96;102875.13;5059200;28;20252;-74
2022/10/19 03:31:47;;;;;;;3.17;2.97;;;;;;;9.01;87.98;102873.38;5058607;28;20032;-74
2022/10/19 03:34:13;;;;;;;2.88;2.67;;;;;;;9.00;87.95;102866.41;5074239;28;20070;-74
2022/10/19 03:36:39;;;;;;;2.78;2.58;;;;;;;9.00;88.05;102863.81;5058882;28;20032;-74
2022/10/19 03:39:12;;;;;;;2.47;2.28;;;;;;;9.00;88.33;102865.53;5059296;28;20033;-74
2022/10/19 03:41:38;;;;;;;3.20;2.90;;;;;;;8.99;88.10;102864.66;5058975;28;20093;-74
2022/10/19 03:44:05;;;;;;;3.10;2.78;;;;;;;8.99;88.27;102866.41;5059858;28;20051;-74
2022/10/19 03:46:31;;;;;;;2.60;2.50;;;;;;;8.99;88.52;102866.41;5058876;28;20299;-74
2022/10/19 03:48:58;;;;;;;2.50;2.30;;;;;;;8.99;88.52;102856.81;5059288;28;20294;-74
2022/10/19 03:51:25;;;;;;;2.80;2.60;;;;;;;9.00;88.83;102878.59;5059231;28;20028;-74
2022/10/19 03:53:59;;;;;;;2.33;2.13;;;;;;;8.99;88.57;102869.88;5074308;28;20017;-74
2022/10/19 03:56:26;;;;;;;2.45;2.25;;;;;;;8.98;88.83;102873.34;5074027;28;20029;-74
2022/10/19 03:58:54;;;;;;;1.95;1.85;;;;;;;8.98;88.82;102875.97;5058638;28;20052;-74
2022/10/19 04:01:32;;;;;;;2.53;2.33;;;;;;;8.98;89.07;102877.72;5058826;28;20331;-74
2022/10/19 04:04:00;;;;;;;2.40;2.20;;;;;;;8.97;89.17;102871.63;5057828;28;20029;-74
2022/10/19 04:06:37;;;;;;;2.45;2.35;;;;;;;8.96;89.01;102874.25;5058812;28;20254;-74
2022/10/19 04:09:04;;;;;;;4.00;2.40;;;;;;;8.95;89.13;102869.88;5073174;28;20044;-74
2022/10/19 04:11:32;;;;;;;2.63;2.42;;;;;;;8.94;89.02;102866.41;5058555;28;20051;-75
2022/10/19 04:13:58;;;;;;;2.50;2.30;;;;;;;8.93;88.89;102871.63;5059289;28;20232;-74
2022/10/19 04:16:25;;;;;;;3.28;2.88;;;;;;;8.92;88.85;102865.53;5058487;28;20021;-74
2022/10/19 04:18:51;;;;;;;11.15;2.97;;;;;;;8.90;88.76;102855.97;5058447;28;20320;-74
2022/10/19 04:21:37;;;;;;;2.88;2.67;;;;;;;8.88;89.03;102857.69;5073648;28;20090;-74
2022/10/19 04:24:08;;;;;;;3.05;2.78;;;;;;;8.85;89.27;102858.59;5058238;28;20100;-74
2022/10/19 04:26:39;;;;;;;6.35;3.10;;;;;;;8.84;89.20;102857.72;5049364;28;20079;-74
2022/10/19 04:29:04;;;;;;;5.28;3.67;;;;;;;8.78;89.43;102852.47;5038675;28;20044;-74
2022/10/19 04:31:30;;;;;;;3.88;3.38;;;;;;;8.76;90.11;102850.75;5053497;28;20041;-74
2022/10/19 04:33:56;;;;;;;3.60;3.30;;;;;;;8.73;90.74;102861.19;5043648;28;20237;-74
2022/10/19 04:36:22;;;;;;;3.03;2.83;;;;;;;8.71;90.80;102863.81;5058049;28;20060;-74
2022/10/19 04:38:47;;;;;;;4.47;3.00;;;;;;;8.70;90.79;102859.47;5074067;28;20352;-74
2022/10/19 04:41:15;;;;;;;3.83;3.03;;;;;;;8.71;90.84;102866.41;5058503;28;20029;-74
2022/10/19 04:43:44;;;;;;;3.17;2.70;;;;;;;8.73;91.07;102871.66;5060305;28;20239;-74
2022/10/19 04:46:12;;;;;;;3.50;2.60;;;;;;;8.75;90.84;102869.91;5077690;28;20031;-74
2022/10/19 04:48:39;;;;;;;2.78;2.58;;;;;;;8.75;91.15;102859.44;5062196;28;20032;-74
2022/10/19 04:51:05;;;;;;;2.40;2.20;;;;;;;8.77;90.90;102870.81;5062288;28;20035;-74
2022/10/19 04:53:32;;;;;;;2.40;2.20;;;;;;;8.78;90.98;102869.91;5061527;28;20082;-74
2022/10/19 04:55:58;;;;;;;2.70;2.50;;;;;;;8.79;90.98;102869.06;5062744;28;20303;-75
2022/10/19 04:58:23;;;;;;;2.00;1.90;;;;;;;8.79;90.81;102864.69;5061799;28;20095;-74
2022/10/19 05:00:49;;;;;;;3.15;2.00;;;;;;;8.80;90.98;102869.06;5061750;28;20412;-75
2022/10/19 05:03:15;;;;;;;2.53;2.40;;;;;;;8.82;90.69;102869.03;5061417;28;20051;-75
2022/10/19 05:05:40;;;;;;;2.03;1.88;;;;;;;8.83;90.75;102873.41;5062140;28;20106;-74
2022/10/19 05:08:08;;;;;;;2.38;2.03;;;;;;;8.81;90.86;102868.16;5061788;28;20053;-74
2022/10/19 05:10:35;;;;;;;2.42;2.25;;;;;;;8.82;91.02;102872.53;5061192;28;20029;-74
2022/10/19 05:13:01;;;;;;;2.38;2.00;;;;;;;8.82;90.99;102874.25;5077162;28;20024;-74
2022/10/19 05:15:27;;;;;;;2.28;2.08;;;;;;;8.81;90.80;102862.06;5061467;28;20067;-74
2022/10/19 05:17:53;;;;;;;1.92;1.77;;;;;;;8.80;90.86;102853.38;5076695;28;20037;-74
2022/10/19 05:20:18;;;;;;;2.45;2.10;;;;;;;8.79;90.54;102851.63;5061403;28;20272;-74
2022/10/19 05:22:43;;;;;;;2.30;2.10;;;;;;;8.80;90.56;102857.72;5076538;28;20072;-74
2022/10/19 05:25:09;;;;;;;2.90;1.52;;;;;;;8.78;90.60;102869.91;5061676;28;20318;-74
2022/10/19 05:27:34;;;;;;;1.77;1.67;;;;;;;8.78;90.83;102869.91;5076283;28;20331;-74
2022/10/19 05:30:00;;;;;;;2.80;1.55;;;;;;;8.78;90.63;102875.13;5060146;28;20033;-74
2022/10/19 05:32:26;;;;;;;1.65;1.55;;;;;;;8.78;90.44;102869.91;5060282;28;20020;-75
2022/10/19 05:34:52;;;;;;;2.03;1.77;;;;;;;8.77;90.66;102863.81;5061219;28;20048;-74
2022/10/19 05:37:17;;;;;;;4.95;2.60;;;;;;;8.76;90.35;102858.59;5060879;28;20040;-74
2022/10/19 05:39:42;;;;;;;2.00;1.75;;;;;;;8.73;90.05;102848.13;5076029;28;20037;-74
2022/10/19 05:42:08;;;;;;;7.60;3.40;;;;;;;8.71;90.31;102852.50;5061104;28;20032;-74
2022/10/19 05:44:34;;;;;;;2.78;2.33;;;;;;;8.69;90.45;102860.31;5060546;28;20333;-75
2022/10/19 05:47:01;;;;;;;3.78;3.00;;;;;;;8.69;90.70;102862.06;5076048;28;20104;-74
2022/10/19 05:49:26;;;;;;;2.50;2.22;;;;;;;8.70;90.74;102842.94;5060874;28;20025;-74
2022/10/19 05:51:52;;;;;;;4.15;2.92;;;;;;;8.68;90.73;102840.31;5061609;28;20078;-74
2022/10/19 05:54:18;;;;;;;2.40;1.88;;;;;;;8.68;91.02;102839.44;5060693;28;20024;-74
2022/10/19 05:56:44;;;;;;;2.30;2.10;;;;;;;8.68;90.94;102835.09;5060851;28;20328;-74
2022/10/19 05:59:15;;;;;;;6.53;2.60;;;;;;;8.68;91.05;102831.59;5061273;28;20028;-74
2022/10/19 06:01:40;;;;;;;2.28;2.08;;;;;;;8.67;90.95;102838.56;5059509;28;20059;-74
2022/10/19 06:04:06;;;;;;;3.20;2.00;;;;;;;8.68;91.15;102849.88;5060853;28;20025;-74
2022/10/19 06:06:32;;;;;;;2.15;2.00;;;;;;;8.68;91.31;102831.59;5060323;28;20079;-74
2022/10/19 06:08:58;;;;;;;5.25;2.92;;;;;;;8.68;91.28;102828.97;5060938;28;20032;-74
2022/10/19 06:11:29;;;;;;;4.30;2.80;;;;;;;8.65;91.09;102819.41;5060164;28;20017;-74
2022/10/19 06:13:56;;;;;;;3.10;2.40;;;;;;;8.63;91.34;102823.78;5060517;28;20064;-74
2022/10/19 06:16:23;;;;;;;5.53;2.53;;;;;;;8.62;91.33;102832.47;5060513;28;20025;-74
2022/10/19 06:18:49;;;;;;;3.72;2.40;;;;;;;8.61;91.63;102823.78;5060283;28;20020;-74
2022/10/19 06:21:17;;;;;;;2.30;2.10;;;;;;;8.62;91.77;102822.03;5059734;28;20029;-75
2022/10/19 06:23:43;;;;;;;3.63;2.27;;;;;;;8.61;91.67;102831.59;5059999;28;20116;-74
2022/10/19 06:26:13;;;;;;;5.10;2.58;;;;;;;8.61;91.79;102829.00;5060020;28;20025;-74
2022/10/19 06:28:40;;;;;;;6.97;3.08;;;;;;;8.61;91.88;102831.59;5057478;28;20020;-74
2022/10/19 06:31:07;;;;;;;3.83;2.85;;;;;;;8.60;91.93;102831.59;5042617;28;20033;-74
2022/10/19 06:33:32;;;;;;;3.17;2.88;;;;;;;8.60;91.63;102832.50;5059363;28;20092;-74
2022/10/19 06:36:18;;;;;;;2.95;2.47;;;;;;;8.61;91.95;102839.44;5058661;28;20051;-74
2022/10/19 06:38:44;;;;;;;2.78;2.28;;;;;;;8.62;91.97;102830.75;5059574;28;20407;-74
2022/10/19 06:41:10;;;;;;;4.68;2.55;;;;;;;8.63;92.04;102834.22;5058799;28;20025;-74
2022/10/19 06:43:36;;;;;;;2.42;2.20;;;;;;;8.62;91.90;102835.97;5074525;28;20337;-74
2022/10/19 06:46:06;;;;;;;2.85;2.25;;;;;;;8.63;91.70;102840.31;5059609;28;20039;-74
2022/10/19 06:48:31;;;;;;;3.55;2.55;;;;;;;8.63;91.63;102849.91;5059133;28;20041;-74
2022/10/19 06:51:03;;;;;;;2.80;2.50;;;;;;;8.63;91.67;102848.16;5038638;28;20282;-74
2022/10/19 06:53:29;;;;;;;4.35;2.80;;;;;;;8.63;91.77;102844.66;5037919;28;20071;-74
2022/10/19 06:55:58;;;;;;;3.72;3.00;;;;;;;8.62;91.91;102838.59;5039635;28;20053;-74
2022/10/19 06:58:24;;;;;;;8.05;3.35;;;;;;;8.60;92.46;102832.50;5039849;28;20305;-74
2022/10/19 07:00:58;;;;;;;5.78;3.50;;;;;;;8.58;92.60;102829.00;5054627;28;20029;-74
2022/10/19 07:03:24;;;;;;;12.43;3.42;;;;;;;8.53;93.28;102833.38;5043365;28;20025;-74
2022/10/19 07:05:58;;;;;;;6.55;3.28;;;;;;;8.53;93.60;102835.09;5058679;28;20040;-74
2022/10/19 07:08:25;;;;;;;4.35;2.67;;;;;;;8.54;93.64;102835.09;5058657;28;20132;-74
2022/10/19 07:10:52;;;;;;;3.50;3.10;;;;;;;8.55;93.81;102822.91;5058950;28;20055;-74
2022/10/19 07:13:17;;;;;;;4.03;2.88;;;;;;;8.56;93.80;102819.44;5059432;28;20324;-74
2022/10/19 07:15:43;;;;;;;12.68;3.47;;;;;;;8.56;94.01;102824.66;5058361;28;20029;-74
2022/10/19 07:18:08;;;;;;;6.25;3.00;;;;;;;8.56;94.14;102835.97;5058493;28;20331;-74
2022/10/19 07:20:33;;;;;;;4.38;2.90;;;;;;;8.57;94.28;102840.31;5057425;28;20324;-74
2022/10/19 07:22:59;;;;;;;3.30;3.00;;;;;;;8.58;94.50;102838.56;5058086;28;20057;-74
2022/10/19 07:25:25;;;;;;;2.78;2.50;;;;;;;8.60;94.37;102842.94;5036981;28;20076;-74
2022/10/19 07:27:51;;;;;;;3.67;2.95;;;;;;;8.62;94.31;102842.91;5054805;28;20100;-74
2022/10/19 07:30:16;;;;;;;3.83;2.85;;;;;;;8.64;94.67;102838.56;5067296;28;20041;-74
2022/10/19 07:32:41;;;;;;;2.97;2.65;;;;;;;8.67;94.50;102842.94;5058898;28;20089;-74
2022/10/19 07:35:07;;;;;;;6.53;2.55;;;;;;;8.68;94.70;102845.53;5059485;28;20036;-74
2022/10/19 07:37:32;;;;;;;3.85;2.40;;;;;;;8.70;94.47;102841.19;5065384;28;20040;-74
2022/10/19 07:39:57;;;;;;;9.02;2.97;;;;;;;8.73;94.92;102841.19;5058966;28;20039;-74
2022/10/19 07:42:23;;;;;;;5.95;3.13;;;;;;;8.73;94.95;102827.25;5058494;28;20067;-74
2022/10/19 07:44:48;;;;;;;7.53;3.30;;;;;;;8.73;95.31;102827.25;5053936;28;20057;-73
2022/10/19 07:47:14;;;;;;;3.40;2.67;;;;;;;8.74;95.51;102832.47;5059778;28;20098;-73
2022/10/19 07:49:39;;;;;;;8.43;2.70;;;;;;;8.75;95.58;102833.31;5057539;28;20090;-73
2022/10/19 07:52:04;;;;;;;9.82;3.83;;;;;;;8.76;96.10;102824.63;5059977;28;20044;-73
2022/10/19 07:54:30;;;;;;;6.50;2.83;;;;;;;8.76;96.49;102819.41;5058096;28;20089;-74
2022/10/19 07:56:55;;;;;;;4.63;2.78;;;;;;;8.76;96.75;102828.09;5058760;28;20139;-74
2022/10/19 07:59:20;;;;;;;5.47;3.13;;;;;;;8.77;96.82;102824.63;5073680;28;20347;-73
2022/10/19 08:01:47;;;;;;;9.75;2.42;;;;;;;8.78;97.18;102825.50;5073592;28;20173;-73
2022/10/19 08:04:13;;;;;;;8.45;3.05;;;;;;;8.77;97.26;102819.41;5073364;28;20033;-73
2022/10/19 08:06:38;;;;;;;5.28;3.08;;;;;;;8.77;97.17;102811.56;5058269;28;20036;-73
2022/10/19 08:09:04;;;;;;;6.85;2.50;;;;;;;8.78;97.32;102810.69;5057931;28;20311;-73
2022/10/19 08:11:32;;;;;;;7.90;2.42;;;;;;;8.80;97.25;102805.47;5058202;28;20232;-74
2022/10/19 08:13:59;;;;;;;7.28;2.67;;;;;;;8.79;97.48;102798.50;5058102;28;20236;-74
2022/10/19 08:16:37;;;;;;;6.35;2.80;;;;;;;8.80;97.40;102798.50;5073277;28;20395;-73
2022/10/19 08:19:06;;;;;;;14.20;3.30;;;;;;;8.81;97.40;102789.78;5061310;28;20063;-73
2022/10/19 08:21:31;;;;;;;8.55;2.72;;;;;;;8.82;97.42;102788.94;5061460;28;20667;-74
2022/10/19 08:23:58;;;;;;;6.25;2.58;;;;;;;8.84;97.58;102781.06;5060569;28;20348;-73
2022/10/19 08:26:24;;;;;;;14.05;2.85;;;;;;;8.87;97.32;102777.59;5061855;28;20327;-73
2022/10/19 08:28:50;;;;;;;8.73;2.65;;;;;;;8.89;97.74;102779.31;5062518;28;20040;-73
2022/10/19 08:31:21;;;;;;;7.68;2.85;;;;;;;8.90;98.00;102778.44;5077016;28;20029;-73
2022/10/19 08:33:49;;;;;;;8.57;3.05;;;;;;;8.95;98.04;102786.25;5076820;28;20029;-73
2022/10/19 08:36:14;;;;;;;9.07;2.70;;;;;;;8.98;98.09;102791.47;5061874;28;20037;-74
2022/10/19 08:38:42;;;;;;;6.18;2.80;;;;;;;9.01;98.27;102781.03;5061562;28;20033;-73
2022/10/19 08:41:40;;;;;;;12.07;3.20;;;;;;;9.06;98.39;102778.38;5062468;28;20126;-74
2022/10/19 08:44:50;;;;;;;8.47;2.50;;;;;;;9.10;98.22;102777.53;5071985;28;20247;-73
2022/10/19 08:47:43;;;;;;;7.15;2.30;;;;;;;9.15;97.93;102783.56;5063786;28;20286;-74
2022/10/19 08:50:22;;;;;;;4.63;2.40;;;;;;;9.18;97.71;102778.34;5070288;28;20291;-73
2022/10/19 08:52:59;;;;;;;6.45;2.25;;;;;;;9.22;97.99;102783.56;5072438;28;20063;-74
2022/10/19 08:55:49;;;;;;;7.90;2.25;;;;;;;9.28;98.07;102777.44;5062355;28;20055;-74
2022/10/19 08:58:43;;;;;;;6.45;2.35;;;;;;;9.33;98.00;102778.31;5059856;28;20025;-73
2022/10/19 09:01:27;;;;;;;6.55;2.00;;;;;;;9.38;97.58;102775.66;5061981;28;20028;-73
2022/10/19 09:04:00;;;;;;;8.15;2.47;;;;;;;9.44;97.50;102782.59;5058307;28;20296;-73
2022/10/19 09:06:44;;;;;;;4.60;1.83;;;;;;;9.48;97.31;102784.31;5069285;28;20013;-73
2022/10/19 09:09:12;;;;;;;9.73;2.40;;;;;;;9.53;97.27;102779.94;5070438;28;20096;-74
2022/10/19 09:11:43;;;;;;;5.80;1.97;;;;;;;9.57;97.33;102781.66;5069708;28;20267;-74
2022/10/19 09:14:14;;;;;;;10.32;2.47;;;;;;;9.62;97.32;102785.09;5069682;28;20358;-73
2022/10/19 09:16:39;;;;;;;8.73;2.60;;;;;;;9.66;97.19;102784.22;5058942;28;20259;-73
2022/10/19 09:19:30;;;;;;;7.68;2.03;;;;;;;9.70;97.52;102791.19;5069604;28;20031;-73
2022/10/19 09:21:59;;;;;;;5.78;1.92;;;;;;;9.76;97.30;102790.28;5063647;28;20108;-73
2022/10/19 09:24:28;;;;;;;6.57;2.33;;;;;;;9.79;97.45;102788.50;5060558;28;20115;-73
2022/10/19 09:26:59;;;;;;;4.75;1.90;;;;;;;9.85;97.29;102782.34;5060980;28;20092;-73
2022/10/19 09:29:32;;;;;;;3.28;1.92;;;;;;;9.91;96.77;102786.69;5059567;28;20037;-73
2022/10/19 09:32:00;;;;;;;4.15;1.80;;;;;;;9.95;96.45;102778.81;5060901;28;20025;-73
2022/10/19 09:34:31;;;;;;;5.10;1.80;;;;;;;10.00;95.72;102778.75;5061675;28;20024;-73
2022/10/19 09:36:57;;;;;;;8.15;1.95;;;;;;;10.03;95.94;102773.50;5060633;28;20056;-73
2022/10/19 09:39:24;;;;;;;4.78;2.20;;;;;;;10.08;96.02;102760.41;5076760;28;20063;-73
2022/10/19 09:41:54;;;;;;;5.68;2.08;;;;;;;10.11;96.08;102763.84;5076282;28;20033;-73
2022/10/19 09:44:21;;;;;;;7.00;2.22;;;;;;;10.14;95.92;102758.59;5059549;28;20029;-73
2022/10/19 09:47:24;;;;;;;6.13;2.13;;;;;;;10.20;96.01;102757.66;5066252;28;20274;-73
2022/10/19 09:49:49;;;;;;;6.32;1.75;;;;;;;10.25;95.76;102744.53;5058481;28;20039;-73
2022/10/19 09:52:32;;;;;;;5.72;1.77;;;;;;;10.30;95.60;102745.38;5059632;28;20285;-73
2022/10/19 09:55:05;;;;;;;2.08;1.38;;;;;;;10.32;93.85;102734.03;5060028;28;20096;-73
2022/10/19 09:57:30;;;;;;;8.23;1.63;;;;;;;10.37;93.17;102728.75;5059678;28;20224;-73
2022/10/19 09:59:56;;;;;;;2.83;1.48;;;;;;;10.42;92.74;102720.84;5080936;28;20044;-73
2022/10/19 10:02:29;;;;;;;4.53;1.50;;;;;;;10.44;92.24;102714.72;5063406;28;20037;-73
2022/10/19 10:05:03;;;;;;;7.10;1.40;;;;;;;10.46;92.68;102715.56;5061139;28;20033;-73
2022/10/19 10:07:35;;;;;;;7.15;1.30;;;;;;;10.48;91.72;102705.94;5059944;28;20276;-73
2022/10/19 10:10:00;;;;;;;8.80;1.30;;;;;;;10.52;92.01;102706.78;5059721;28;20017;-73
2022/10/19 10:12:26;;;;;;;4.82;1.85;;;;;;;10.52;91.90;102705.00;5062255;28;20048;-74
2022/10/19 10:14:52;;;;;;;8.38;2.05;;;;;;;10.54;91.94;102703.25;5076687;28;20029;-74
2022/10/19 10:17:21;;;;;;;5.10;1.48;;;;;;;10.57;92.02;102699.75;5066906;28;20370;-73
2022/10/19 10:19:56;;;;;;;5.38;1.52;;;;;;;10.60;92.03;102704.06;5061937;28;20029;-73
2022/10/19 10:22:34;;;;;;;7.90;1.60;;;;;;;10.63;91.79;102698.78;5068286;28;20032;-73
2022/10/19 10:24:59;;;;;;;7.00;1.75;;;;;;;10.67;91.40;102695.25;5063021;28;20047;-73
2022/10/19 10:27:35;;;;;;;7.70;1.50;;;;;;;10.71;90.49;102675.97;5070424;28;20016;-73
2022/10/19 10:30:07;;;;;;;5.32;2.25;;;;;;;10.74;90.58;102682.06;5067856;28;20267;-73
2022/10/19 10:32:37;;;;;;;7.10;1.90;;;;;;;10.78;90.73;102677.63;5061525;28;20059;-73
2022/10/19 10:35:16;;;;;;;7.63;1.63;;;;;;;10.82;90.73;102676.69;5074307;28;20389;-73
2022/10/19 10:37:44;;;;;;;6.25;1.30;;;;;;;10.87;90.19;102668.81;5057481;28;20021;-73
2022/10/19 10:40:23;;;;;;;7.83;1.47;;;;;;;10.92;88.78;102664.38;5057179;28;20320;-73
2022/10/19 10:42:50;;;;;;;5.68;1.10;;;;;;;10.94;88.82;102663.44;5068562;28;20300;-73
2022/10/19 10:45:28;;;;;;;4.55;1.23;;;;;;;10.99;88.63;102663.41;5062098;28;20036;-73
2022/10/19 10:47:53;;;;;;;3.70;1.27;;;;;;;11.01;89.01;102656.38;5062206;28;20213;-73
2022/10/19 10:50:26;;;;;;;2.78;1.27;;;;;;;11.03;88.16;102651.97;5057196;28;20025;-74
2022/10/19 10:53:06;;;;;;;8.00;1.50;;;;;;;11.05;87.37;102654.59;5056048;28;20032;-74
2022/10/19 10:55:33;;;;;;;3.20;1.30;;;;;;;11.08;86.91;102652.78;5057825;28;20035;-73
2022/10/19 10:58:14;;;;;;;1.73;1.30;;;;;;;11.10;86.71;102640.53;5074023;28;20028;-73
2022/10/19 11:00:41;;;;;;;14.93;2.00;;;;;;;11.11;86.84;102644.88;5072899;28;20095;-73
2022/10/19 11:03:13;;;;;;;7.30;1.25;;;;;;;11.12;86.44;102654.47;5059067;28;20220;-73
2022/10/19 11:05:46;;;;;;;1.95;1.70;;;;;;;11.13;86.61;102655.34;5054399;28;20028;-73
2022/10/19 11:08:36;;;;;;;11.10;1.70;;;;;;;11.13;86.36;102653.59;5038437;28;20029;-74
2022/10/19 11:11:07;;;;;;;3.35;2.40;;;;;;;11.19;86.16;102657.00;5038886;28;20088;-73
2022/10/19 11:13:44;;;;;;;6.10;1.75;;;;;;;11.21;86.36;102647.38;5037617;28;20025;-73
2022/10/19 11:16:46;;;;;;;5.82;1.92;;;;;;;11.22;85.91;102644.72;5038954;28;20228;-73
2022/10/19 11:19:21;;;;;;;6.47;1.63;;;;;;;11.25;86.33;102642.06;4996929;28;20384;-74
2022/10/19 11:21:55;;;;;;;4.50;1.45;;;;;;;11.28;85.77;102628.91;5033048;28;20090;-73
2022/10/19 11:24:26;;;;;;;4.80;1.20;;;;;;;11.32;85.64;102625.34;5038095;28;20348;-73
2022/10/19 11:27:05;;;;;;;3.08;1.40;;;;;;;11.33;84.53;102611.34;5038590;28;20040;-73
2022/10/19 11:29:40;;;;;;;;;;;;;;;11.34;84.40;102610.44;5038631;28;20033;-74
2022/10/19 11:32:17;;;;;;;3.33;1.33;;;;;;;11.36;84.61;102602.53;5038358;28;19904;-73
2022/10/19 11:35:22;;;;;;;7.10;1.30;;;;;;;11.38;84.65;102603.38;5050760;28;20032;-73
2022/10/19 11:38:24;;;;;;;7.80;1.70;;;;;;;11.42;84.71;102598.94;5058111;28;20103;-73
2022/10/19 11:41:03;;;;;;;5.45;1.55;;;;;;;11.45;85.21;102584.03;5057852;28;20051;-73
2022/10/19 11:43:43;;;;;;;1.35;0.95;;;;;;;11.48;84.68;102578.75;5058005;28;20067;-73
2022/10/19 11:46:33;;;;;;;3.42;1.15;;;;;;;11.51;84.81;102583.94;5058080;28;20033;-73